Coventry, United Kingdom
Current Conditions -  °F | °C
As of 1:50 AM on Friday 31 Oct 2014 (Local Time) from EGBE Reporting Station
Broken Clouds Broken Clouds  
Wind Chill: 59°   Ceiling: 1200
Heat Index: 59°   Visibility: 4mi
Dew Point: 57°   Wind: 9mph
Humidity: 94%   Direction: 190°S
Pressure: 30"   Gusts: NA
Location:  52.41°N, 1.51°W
Report Text: EGBE 310150Z 19008KT 7000 BKN012 15/14 Q1016
Loading
Personal Weather Stations






























Interactive Weather Map
Tropical Storm Tracking
New forecast layout! Learn more

10-Day Weather Forecast

Advertisements
Track Severe Weather on mobile